SVA318 HECA-OEMA
Flight info
| Callsign | SVA318 |
|---|---|
| Flight time | 1h 35m |
| Altitude | 37000 |
| Route | CVO L315 HGD M872 WEJ J852 PMA |
| Aircraft | A21N/M-SDE3FGHIRWY/LB1 |
Departure
| Time | 2026-05-08 13:33 |
|---|---|
| Airport | Cairo International Airport (HECA) |
Arrival
| Time | 2026-05-08 15:08 |
|---|---|
| Airport | Prince Mohammad Bin Abdulaziz Airport (OEMA) |
| Time | Latitude | Longitude | Altitude | Speed | Heading |
|---|---|---|---|---|---|
| 2026-05-08 13:08 | 30.12688 | 31.40621 | 269 ft | 0 kts | 256° |
| 2026-05-08 13:21 | 30.12690 | 31.40627 | 269 ft | 1 kts | 205° |
| 2026-05-08 13:22 | 30.12700 | 31.40627 | 268 ft | 2 kts | 166° |
| 2026-05-08 13:22 | 30.12715 | 31.40625 | 268 ft | 2 kts | 181° |
| 2026-05-08 13:22 | 30.12724 | 31.40625 | 267 ft | 0 kts | 201° |
| 2026-05-08 13:22 | 30.12729 | 31.40630 | 267 ft | 1 kts | 259° |
| 2026-05-08 13:23 | 30.12728 | 31.40638 | 268 ft | 1 kts | 310° |
| 2026-05-08 13:23 | 30.12724 | 31.40642 | 268 ft | 0 kts | 347° |
| 2026-05-08 13:23 | 30.12718 | 31.40643 | 268 ft | 0 kts | 340° |
| 2026-05-08 13:26 | 30.12783 | 31.40616 | 265 ft | 18 kts | 341° |
| 2026-05-08 13:26 | 30.12890 | 31.40577 | 259 ft | 6 kts | 2° |
| 2026-05-08 13:26 | 30.12921 | 31.40620 | 259 ft | 9 kts | 73° |
| 2026-05-08 13:27 | 30.12937 | 31.40689 | 261 ft | 3 kts | 67° |
| 2026-05-08 13:27 | 30.12949 | 31.40703 | 261 ft | 2 kts | 27° |
| 2026-05-08 13:27 | 30.12990 | 31.40697 | 260 ft | 10 kts | 344° |
| 2026-05-08 13:27 | 30.13110 | 31.40655 | 251 ft | 20 kts | 339° |
| 2026-05-08 13:28 | 30.13199 | 31.40532 | 241 ft | 22 kts | 285° |
| 2026-05-08 13:28 | 30.13252 | 31.40347 | 230 ft | 26 kts | 288° |
| 2026-05-08 13:28 | 30.13282 | 31.40124 | 217 ft | 29 kts | 268° |
| 2026-05-08 13:28 | 30.13165 | 31.39950 | 213 ft | 27 kts | 231° |
| 2026-05-08 13:29 | 30.13045 | 31.39788 | 212 ft | 26 kts | 229° |
| 2026-05-08 13:29 | 30.12923 | 31.39623 | 207 ft | 27 kts | 229° |
| 2026-05-08 13:29 | 30.12801 | 31.39461 | 207 ft | 25 kts | 227° |
| 2026-05-08 13:29 | 30.12690 | 31.39311 | 207 ft | 24 kts | 230° |
| 2026-05-08 13:30 | 30.12588 | 31.39167 | 209 ft | 22 kts | 230° |
| 2026-05-08 13:30 | 30.12484 | 31.39025 | 204 ft | 23 kts | 229° |
| 2026-05-08 13:30 | 30.12376 | 31.38883 | 202 ft | 23 kts | 227° |
| 2026-05-08 13:30 | 30.12268 | 31.38740 | 201 ft | 27 kts | 230° |
| 2026-05-08 13:31 | 30.12127 | 31.38545 | 201 ft | 29 kts | 230° |
| 2026-05-08 13:31 | 30.11995 | 31.38367 | 200 ft | 29 kts | 227° |
| 2026-05-08 13:31 | 30.11954 | 31.38260 | 199 ft | 11 kts | 309° |
| 2026-05-08 13:31 | 30.12025 | 31.38187 | 196 ft | 15 kts | 320° |
| 2026-05-08 13:32 | 30.12078 | 31.38169 | 194 ft | 7 kts | 33° |
| 2026-05-08 13:32 | 30.12112 | 31.38209 | 194 ft | 6 kts | 49° |
| 2026-05-08 13:32 | 30.12136 | 31.38241 | 194 ft | 0 kts | 50° |
| 2026-05-08 13:32 | 30.12291 | 31.38450 | 194 ft | 73 kts | 49° |
| 2026-05-08 13:33 | 30.12779 | 31.39104 | 199 ft | 139 kts | 48° |
| 2026-05-08 13:33 | 30.13497 | 31.40073 | 519 ft | 166 kts | 46° |
| 2026-05-08 13:33 | 30.14253 | 31.41072 | 1190 ft | 169 kts | 44° |
| 2026-05-08 13:33 | 30.15043 | 31.42083 | 1924 ft | 173 kts | 46° |
| 2026-05-08 13:34 | 30.15705 | 31.43306 | 2406 ft | 195 kts | 64° |
| 2026-05-08 13:34 | 30.16028 | 31.44920 | 2892 ft | 219 kts | 82° |
| 2026-05-08 13:34 | 30.15868 | 31.46776 | 3424 ft | 245 kts | 102° |
| 2026-05-08 13:34 | 30.15072 | 31.48605 | 3959 ft | 271 kts | 127° |
| 2026-05-08 13:35 | 30.13561 | 31.50007 | 4607 ft | 290 kts | 154° |
| 2026-05-08 13:35 | 30.11633 | 31.50562 | 5501 ft | 293 kts | 180° |
| 2026-05-08 13:35 | 30.09628 | 31.50322 | 6442 ft | 294 kts | 191° |
| 2026-05-08 13:35 | 30.07627 | 31.49888 | 7326 ft | 297 kts | 192° |
| 2026-05-08 13:36 | 30.05610 | 31.49457 | 8197 ft | 300 kts | 192° |
| 2026-05-08 13:36 | 30.03566 | 31.49059 | 9065 ft | 302 kts | 191° |
| 2026-05-08 13:36 | 30.01497 | 31.48685 | 9919 ft | 305 kts | 191° |
| 2026-05-08 13:36 | 29.99383 | 31.48378 | 10665 ft | 312 kts | 182° |
| 2026-05-08 13:37 | 29.97226 | 31.48915 | 11096 ft | 332 kts | 153° |
| 2026-05-08 13:37 | 29.95295 | 31.50386 | 11859 ft | 337 kts | 143° |
| 2026-05-08 13:37 | 29.93448 | 31.52049 | 12662 ft | 340 kts | 142° |
| 2026-05-08 13:37 | 29.91601 | 31.53730 | 13378 ft | 345 kts | 143° |
| 2026-05-08 13:38 | 29.89697 | 31.55431 | 14082 ft | 350 kts | 143° |
| 2026-05-08 13:38 | 29.87745 | 31.57144 | 14780 ft | 355 kts | 144° |
| 2026-05-08 13:38 | 29.85761 | 31.58862 | 15467 ft | 360 kts | 144° |
| 2026-05-08 13:38 | 29.83770 | 31.60573 | 16136 ft | 365 kts | 145° |
| 2026-05-08 13:39 | 29.81713 | 31.62331 | 16807 ft | 370 kts | 145° |
| 2026-05-08 13:39 | 29.79659 | 31.64082 | 17453 ft | 375 kts | 146° |
| 2026-05-08 13:39 | 29.77531 | 31.65892 | 18044 ft | 381 kts | 146° |
| 2026-05-08 13:39 | 29.75400 | 31.67702 | 18610 ft | 387 kts | 147° |
| 2026-05-08 13:40 | 29.73246 | 31.69531 | 19209 ft | 391 kts | 147° |
| 2026-05-08 13:40 | 29.71055 | 31.71390 | 19808 ft | 395 kts | 147° |
| 2026-05-08 13:40 | 29.68820 | 31.73285 | 20399 ft | 399 kts | 147° |
| 2026-05-08 13:40 | 29.66583 | 31.75180 | 20967 ft | 403 kts | 147° |
| 2026-05-08 13:41 | 29.64339 | 31.77080 | 21519 ft | 407 kts | 148° |
| 2026-05-08 13:41 | 29.62061 | 31.79008 | 22063 ft | 411 kts | 148° |
| 2026-05-08 13:41 | 29.59748 | 31.80964 | 22599 ft | 415 kts | 148° |
| 2026-05-08 13:41 | 29.57434 | 31.82919 | 23071 ft | 420 kts | 148° |
| 2026-05-08 13:42 | 29.55056 | 31.84926 | 23507 ft | 426 kts | 148° |
| 2026-05-08 13:42 | 29.52669 | 31.86942 | 23995 ft | 429 kts | 148° |
| 2026-05-08 13:42 | 29.50263 | 31.88972 | 24490 ft | 432 kts | 149° |
| 2026-05-08 13:42 | 29.47847 | 31.91010 | 24962 ft | 435 kts | 149° |
| 2026-05-08 13:43 | 29.45423 | 31.93053 | 25416 ft | 439 kts | 149° |
| 2026-05-08 13:43 | 29.42960 | 31.95127 | 25867 ft | 442 kts | 149° |
| 2026-05-08 13:43 | 29.40462 | 31.97229 | 26303 ft | 445 kts | 149° |
| 2026-05-08 13:43 | 29.37993 | 31.99306 | 26724 ft | 447 kts | 149° |
| 2026-05-08 13:44 | 29.35486 | 32.01414 | 27136 ft | 450 kts | 150° |
| 2026-05-08 13:44 | 29.32955 | 32.03539 | 27532 ft | 453 kts | 150° |
| 2026-05-08 13:44 | 29.30419 | 32.05668 | 27924 ft | 455 kts | 150° |
| 2026-05-08 13:44 | 29.27847 | 32.07827 | 28319 ft | 457 kts | 150° |
| 2026-05-08 13:45 | 29.25311 | 32.09953 | 28688 ft | 460 kts | 150° |
| 2026-05-08 13:45 | 29.22715 | 32.12128 | 29053 ft | 462 kts | 150° |
| 2026-05-08 13:45 | 29.20139 | 32.14286 | 29398 ft | 465 kts | 150° |
| 2026-05-08 13:45 | 29.17530 | 32.16470 | 29757 ft | 466 kts | 151° |
| 2026-05-08 13:46 | 29.14924 | 32.18653 | 30092 ft | 469 kts | 151° |
| 2026-05-08 13:46 | 29.12283 | 32.20863 | 30422 ft | 471 kts | 151° |
| 2026-05-08 13:46 | 29.09631 | 32.23078 | 30758 ft | 472 kts | 151° |
| 2026-05-08 13:46 | 29.06988 | 32.25280 | 31087 ft | 474 kts | 151° |
| 2026-05-08 13:47 | 29.04348 | 32.27480 | 31425 ft | 474 kts | 150° |
| 2026-05-08 13:47 | 29.01695 | 32.29690 | 31760 ft | 475 kts | 150° |
| 2026-05-08 13:47 | 28.99015 | 32.31923 | 32166 ft | 473 kts | 150° |
| 2026-05-08 13:47 | 28.96398 | 32.34102 | 32589 ft | 471 kts | 150° |
| 2026-05-08 13:48 | 28.93761 | 32.36298 | 32989 ft | 469 kts | 150° |
| 2026-05-08 13:48 | 28.91122 | 32.38496 | 33342 ft | 468 kts | 150° |
| 2026-05-08 13:48 | 28.88496 | 32.40681 | 33662 ft | 468 kts | 150° |
| 2026-05-08 13:48 | 28.85892 | 32.42844 | 33974 ft | 467 kts | 150° |
| 2026-05-08 13:49 | 28.83278 | 32.45013 | 34286 ft | 466 kts | 150° |
| 2026-05-08 13:49 | 28.80678 | 32.47168 | 34586 ft | 465 kts | 150° |
| 2026-05-08 13:49 | 28.78043 | 32.49350 | 34880 ft | 465 kts | 150° |
| 2026-05-08 13:49 | 28.75442 | 32.51504 | 35159 ft | 464 kts | 150° |
| 2026-05-08 13:50 | 28.72862 | 32.53639 | 35415 ft | 464 kts | 150° |
| 2026-05-08 13:50 | 28.70247 | 32.55803 | 35638 ft | 464 kts | 150° |
| 2026-05-08 13:50 | 28.67654 | 32.57946 | 35840 ft | 465 kts | 150° |
| 2026-05-08 13:50 | 28.65030 | 32.60114 | 36037 ft | 466 kts | 150° |
| 2026-05-08 13:51 | 28.62412 | 32.62277 | 36227 ft | 467 kts | 150° |
| 2026-05-08 13:51 | 28.59802 | 32.64430 | 36412 ft | 467 kts | 150° |
| 2026-05-08 13:51 | 28.57203 | 32.66573 | 36575 ft | 468 kts | 150° |
| 2026-05-08 13:51 | 28.54580 | 32.68735 | 36714 ft | 469 kts | 150° |
| 2026-05-08 13:52 | 28.51952 | 32.70900 | 36852 ft | 470 kts | 150° |
| 2026-05-08 13:52 | 28.49283 | 32.73096 | 36991 ft | 470 kts | 150° |
| 2026-05-08 13:52 | 28.44011 | 32.77431 | 37051 ft | 472 kts | 150° |
| 2026-05-08 13:53 | 28.38693 | 32.81798 | 37054 ft | 472 kts | 150° |
| 2026-05-08 13:53 | 28.33416 | 32.86127 | 37055 ft | 472 kts | 150° |
| 2026-05-08 13:54 | 28.28077 | 32.90499 | 37049 ft | 472 kts | 150° |
| 2026-05-08 13:54 | 28.22796 | 32.94817 | 37010 ft | 473 kts | 150° |
| 2026-05-08 13:55 | 28.17454 | 32.99180 | 36952 ft | 474 kts | 150° |
| 2026-05-08 13:56 | 28.09451 | 33.05704 | 36886 ft | 476 kts | 150° |
| 2026-05-08 13:56 | 28.04104 | 33.10055 | 36871 ft | 476 kts | 150° |
| 2026-05-08 13:57 | 27.98721 | 33.14440 | 36866 ft | 477 kts | 150° |
| 2026-05-08 13:57 | 27.93386 | 33.18784 | 36864 ft | 477 kts | 150° |
| 2026-05-08 13:58 | 27.87991 | 33.23165 | 36864 ft | 477 kts | 150° |
| 2026-05-08 13:58 | 27.82627 | 33.27513 | 36864 ft | 477 kts | 150° |
| 2026-05-08 13:59 | 27.77241 | 33.31873 | 36864 ft | 477 kts | 150° |
| 2026-05-08 13:59 | 27.71872 | 33.36212 | 36864 ft | 477 kts | 150° |
| 2026-05-08 14:00 | 27.66480 | 33.40566 | 36864 ft | 477 kts | 150° |
| 2026-05-08 14:00 | 27.61124 | 33.44883 | 36864 ft | 476 kts | 150° |
| 2026-05-08 14:01 | 27.55733 | 33.49221 | 36864 ft | 477 kts | 150° |
| 2026-05-08 14:01 | 27.50360 | 33.53545 | 36864 ft | 476 kts | 150° |
| 2026-05-08 14:02 | 27.45001 | 33.57856 | 36864 ft | 476 kts | 150° |
| 2026-05-08 14:02 | 27.39645 | 33.62155 | 36864 ft | 476 kts | 150° |
| 2026-05-08 14:03 | 27.34257 | 33.66472 | 36862 ft | 476 kts | 151° |
| 2026-05-08 14:03 | 27.28869 | 33.70780 | 36864 ft | 476 kts | 151° |
| 2026-05-08 14:04 | 27.23555 | 33.75138 | 36863 ft | 479 kts | 146° |
| 2026-05-08 14:04 | 27.18835 | 33.80467 | 36863 ft | 485 kts | 133° |
| 2026-05-08 14:05 | 27.15205 | 33.86845 | 36863 ft | 489 kts | 118° |
| 2026-05-08 14:05 | 27.12606 | 33.93872 | 36865 ft | 489 kts | 113° |
| 2026-05-08 14:06 | 27.10169 | 34.00973 | 36864 ft | 489 kts | 113° |
| 2026-05-08 14:06 | 27.07662 | 34.08082 | 36864 ft | 489 kts | 114° |
| 2026-05-08 14:07 | 27.05136 | 34.15151 | 36852 ft | 489 kts | 114° |
| 2026-05-08 14:07 | 27.02619 | 34.22178 | 36843 ft | 489 kts | 114° |
| 2026-05-08 14:08 | 27.00096 | 34.29221 | 36840 ft | 487 kts | 114° |
| 2026-05-08 14:08 | 26.97583 | 34.36225 | 36839 ft | 485 kts | 113° |
| 2026-05-08 14:09 | 26.95060 | 34.43237 | 36839 ft | 484 kts | 113° |
| 2026-05-08 14:09 | 26.92562 | 34.50162 | 36839 ft | 482 kts | 113° |
| 2026-05-08 14:10 | 26.90041 | 34.57142 | 36839 ft | 481 kts | 113° |
| 2026-05-08 14:10 | 26.87546 | 34.64033 | 36838 ft | 479 kts | 113° |
| 2026-05-08 14:11 | 26.85040 | 34.70948 | 36837 ft | 479 kts | 113° |
| 2026-05-08 14:11 | 26.82552 | 34.77798 | 36837 ft | 479 kts | 114° |
| 2026-05-08 14:12 | 26.80048 | 34.84680 | 36837 ft | 479 kts | 113° |
| 2026-05-08 14:12 | 26.77530 | 34.91584 | 36837 ft | 480 kts | 113° |
| 2026-05-08 14:13 | 26.75015 | 34.98471 | 36837 ft | 480 kts | 113° |
| 2026-05-08 14:13 | 26.72480 | 35.05400 | 36837 ft | 481 kts | 113° |
| 2026-05-08 14:14 | 26.69955 | 35.12293 | 36838 ft | 481 kts | 113° |
| 2026-05-08 14:14 | 26.67413 | 35.19215 | 36838 ft | 481 kts | 113° |
| 2026-05-08 14:15 | 26.64886 | 35.26084 | 36840 ft | 481 kts | 113° |
| 2026-05-08 14:15 | 26.62340 | 35.32995 | 36844 ft | 481 kts | 113° |
| 2026-05-08 14:16 | 26.59799 | 35.39875 | 36850 ft | 480 kts | 113° |
| 2026-05-08 14:16 | 26.57258 | 35.46743 | 36855 ft | 480 kts | 113° |
| 2026-05-08 14:17 | 26.54688 | 35.53583 | 36860 ft | 480 kts | 114° |
| 2026-05-08 14:17 | 26.52060 | 35.60457 | 36862 ft | 480 kts | 114° |
| 2026-05-08 14:18 | 26.49443 | 35.67296 | 36860 ft | 480 kts | 114° |
| 2026-05-08 14:18 | 26.46836 | 35.74102 | 36862 ft | 480 kts | 114° |
| 2026-05-08 14:19 | 26.44204 | 35.80962 | 36863 ft | 480 kts | 114° |
| 2026-05-08 14:19 | 26.41592 | 35.87760 | 36862 ft | 480 kts | 114° |
| 2026-05-08 14:20 | 26.38954 | 35.94615 | 36862 ft | 480 kts | 114° |
| 2026-05-08 14:20 | 26.36328 | 36.01428 | 36862 ft | 480 kts | 114° |
| 2026-05-08 14:21 | 26.33685 | 36.08271 | 36862 ft | 480 kts | 114° |
| 2026-05-08 14:21 | 26.31056 | 36.15068 | 36863 ft | 480 kts | 114° |
| 2026-05-08 14:22 | 26.28421 | 36.21869 | 36862 ft | 480 kts | 114° |
| 2026-05-08 14:22 | 26.25784 | 36.28663 | 36863 ft | 480 kts | 114° |
| 2026-05-08 14:23 | 26.23123 | 36.35504 | 36862 ft | 480 kts | 114° |
| 2026-05-08 14:23 | 26.20488 | 36.42268 | 36862 ft | 480 kts | 114° |
| 2026-05-08 14:24 | 26.17785 | 36.49031 | 36862 ft | 479 kts | 117° |
| 2026-05-08 14:24 | 26.14644 | 36.55577 | 36863 ft | 479 kts | 120° |
| 2026-05-08 14:25 | 26.11433 | 36.62050 | 36863 ft | 479 kts | 120° |
| 2026-05-08 14:25 | 26.08228 | 36.68525 | 36861 ft | 479 kts | 121° |
| 2026-05-08 14:26 | 26.05044 | 36.74965 | 36862 ft | 478 kts | 121° |
| 2026-05-08 14:26 | 26.01829 | 36.81465 | 36862 ft | 479 kts | 121° |
| 2026-05-08 14:27 | 25.98636 | 36.87912 | 36862 ft | 479 kts | 121° |
| 2026-05-08 14:27 | 25.95426 | 36.94382 | 36862 ft | 479 kts | 121° |
| 2026-05-08 14:28 | 25.92211 | 37.00855 | 36862 ft | 479 kts | 121° |
| 2026-05-08 14:28 | 25.89000 | 37.07307 | 36862 ft | 479 kts | 120° |
| 2026-05-08 14:29 | 25.85803 | 37.13723 | 36862 ft | 478 kts | 120° |
| 2026-05-08 14:29 | 25.82589 | 37.20166 | 36862 ft | 478 kts | 120° |
| 2026-05-08 14:30 | 25.79369 | 37.26616 | 36864 ft | 478 kts | 120° |
| 2026-05-08 14:30 | 25.76168 | 37.33061 | 36869 ft | 478 kts | 120° |
| 2026-05-08 14:31 | 25.72977 | 37.39471 | 36875 ft | 477 kts | 120° |
| 2026-05-08 14:31 | 25.69772 | 37.45902 | 36882 ft | 477 kts | 120° |
| 2026-05-08 14:32 | 25.64963 | 37.55524 | 36889 ft | 477 kts | 120° |
| 2026-05-08 14:32 | 25.61745 | 37.61955 | 36890 ft | 477 kts | 120° |
| 2026-05-08 14:33 | 25.58535 | 37.68359 | 36889 ft | 477 kts | 121° |
| 2026-05-08 14:33 | 25.55324 | 37.74755 | 36891 ft | 477 kts | 121° |
| 2026-05-08 14:34 | 25.52103 | 37.81164 | 36891 ft | 477 kts | 121° |
| 2026-05-08 14:34 | 25.48897 | 37.87532 | 36891 ft | 477 kts | 121° |
| 2026-05-08 14:35 | 25.45672 | 37.93929 | 36891 ft | 477 kts | 121° |
| 2026-05-08 14:35 | 25.42437 | 38.00340 | 36890 ft | 477 kts | 121° |
| 2026-05-08 14:36 | 25.39214 | 38.06714 | 36880 ft | 477 kts | 121° |
| 2026-05-08 14:36 | 25.35994 | 38.13075 | 36860 ft | 477 kts | 120° |
| 2026-05-08 14:37 | 25.32764 | 38.19448 | 36835 ft | 477 kts | 120° |
| 2026-05-08 14:37 | 25.29528 | 38.25824 | 36809 ft | 477 kts | 120° |
| 2026-05-08 14:38 | 25.26293 | 38.32188 | 36781 ft | 477 kts | 121° |
| 2026-05-08 14:38 | 25.23053 | 38.38554 | 36764 ft | 477 kts | 121° |
| 2026-05-08 14:39 | 25.19798 | 38.44938 | 36757 ft | 477 kts | 121° |
| 2026-05-08 14:39 | 25.16549 | 38.51304 | 36755 ft | 477 kts | 121° |
| 2026-05-08 14:40 | 25.13306 | 38.57642 | 36754 ft | 477 kts | 121° |
| 2026-05-08 14:40 | 25.10055 | 38.63988 | 36756 ft | 476 kts | 121° |
| 2026-05-08 14:41 | 25.06813 | 38.70303 | 36760 ft | 474 kts | 121° |
| 2026-05-08 14:41 | 25.03572 | 38.76608 | 36782 ft | 472 kts | 121° |
| 2026-05-08 14:42 | 25.00350 | 38.82868 | 36813 ft | 470 kts | 121° |
| 2026-05-08 14:42 | 24.97134 | 38.89104 | 36846 ft | 468 kts | 121° |
| 2026-05-08 14:43 | 24.93925 | 38.95319 | 36872 ft | 468 kts | 121° |
| 2026-05-08 14:43 | 24.90721 | 39.01513 | 36856 ft | 466 kts | 121° |
| 2026-05-08 14:44 | 24.89101 | 39.04639 | 36403 ft | 470 kts | 121° |
| 2026-05-08 14:44 | 24.87464 | 39.07744 | 35460 ft | 479 kts | 125° |
| 2026-05-08 14:44 | 24.85288 | 39.10471 | 34450 ft | 479 kts | 146° |
| 2026-05-08 14:44 | 24.82440 | 39.12226 | 33424 ft | 465 kts | 166° |
| 2026-05-08 14:45 | 24.79376 | 39.13153 | 32259 ft | 467 kts | 169° |
| 2026-05-08 14:45 | 24.76393 | 39.14588 | 31366 ft | 477 kts | 150° |
| 2026-05-08 14:45 | 24.73963 | 39.17034 | 30371 ft | 478 kts | 130° |
| 2026-05-08 14:45 | 24.72438 | 39.20225 | 29499 ft | 474 kts | 109° |
| 2026-05-08 14:46 | 24.72022 | 39.23743 | 28887 ft | 460 kts | 86° |
| 2026-05-08 14:46 | 24.72741 | 39.27101 | 28452 ft | 451 kts | 64° |
| 2026-05-08 14:46 | 24.74190 | 39.30117 | 28136 ft | 442 kts | 62° |
| 2026-05-08 14:46 | 24.75392 | 39.33186 | 27813 ft | 435 kts | 72° |
| 2026-05-08 14:47 | 24.76093 | 39.36361 | 27478 ft | 427 kts | 85° |
| 2026-05-08 14:47 | 24.75958 | 39.39541 | 27009 ft | 413 kts | 110° |
| 2026-05-08 14:47 | 24.74634 | 39.42179 | 26397 ft | 388 kts | 140° |
| 2026-05-08 14:47 | 24.72413 | 39.43704 | 25999 ft | 366 kts | 169° |
| 2026-05-08 14:48 | 24.69976 | 39.43850 | 25524 ft | 350 kts | 196° |
| 2026-05-08 14:48 | 24.67941 | 39.42632 | 24546 ft | 341 kts | 233° |
| 2026-05-08 14:48 | 24.67159 | 39.40255 | 24105 ft | 339 kts | 268° |
| 2026-05-08 14:48 | 24.67919 | 39.37773 | 23246 ft | 362 kts | 309° |
| 2026-05-08 14:49 | 24.70085 | 39.36433 | 22654 ft | 376 kts | 348° |
| 2026-05-08 14:49 | 24.72690 | 39.36762 | 21958 ft | 386 kts | 24° |
| 2026-05-08 14:49 | 24.74828 | 39.38493 | 21418 ft | 386 kts | 51° |
| 2026-05-08 14:49 | 24.76131 | 39.41002 | 20820 ft | 382 kts | 74° |
| 2026-05-08 14:50 | 24.76710 | 39.43811 | 20477 ft | 372 kts | 85° |
| 2026-05-08 14:50 | 24.76951 | 39.46626 | 20130 ft | 366 kts | 89° |
| 2026-05-08 14:50 | 24.77069 | 39.49406 | 19784 ft | 360 kts | 91° |
| 2026-05-08 14:50 | 24.77155 | 39.52106 | 19445 ft | 355 kts | 91° |
| 2026-05-08 14:51 | 24.77243 | 39.54802 | 19104 ft | 350 kts | 91° |
| 2026-05-08 14:51 | 24.77338 | 39.57459 | 18765 ft | 345 kts | 89° |
| 2026-05-08 14:51 | 24.77870 | 39.60023 | 18366 ft | 347 kts | 64° |
| 2026-05-08 14:51 | 24.79359 | 39.62043 | 18035 ft | 345 kts | 36° |
| 2026-05-08 14:52 | 24.81498 | 39.63100 | 17702 ft | 336 kts | 8° |
| 2026-05-08 14:52 | 24.85946 | 39.62394 | 16402 ft | 326 kts | 347° |
| 2026-05-08 14:52 | 24.88195 | 39.62287 | 15697 ft | 330 kts | 14° |
| 2026-05-08 14:53 | 24.90202 | 39.63376 | 15375 ft | 320 kts | 44° |
| 2026-05-08 14:53 | 24.91421 | 39.65302 | 15068 ft | 308 kts | 75° |
| 2026-05-08 14:53 | 24.91596 | 39.67564 | 14758 ft | 294 kts | 105° |
| 2026-05-08 14:53 | 24.90707 | 39.69530 | 14450 ft | 282 kts | 134° |
| 2026-05-08 14:54 | 24.89233 | 39.70889 | 14159 ft | 274 kts | 150° |
| 2026-05-08 14:54 | 24.87534 | 39.71720 | 13871 ft | 268 kts | 166° |
| 2026-05-08 14:54 | 24.85699 | 39.71969 | 13578 ft | 263 kts | 183° |
| 2026-05-08 14:54 | 24.83921 | 39.71766 | 13306 ft | 259 kts | 187° |
| 2026-05-08 14:55 | 24.82130 | 39.71522 | 12992 ft | 256 kts | 186° |
| 2026-05-08 14:55 | 24.80362 | 39.71319 | 12360 ft | 267 kts | 185° |
| 2026-05-08 14:55 | 24.78477 | 39.71140 | 11591 ft | 277 kts | 184° |
| 2026-05-08 14:55 | 24.76556 | 39.70955 | 10813 ft | 280 kts | 189° |
| 2026-05-08 14:56 | 24.74769 | 39.70227 | 10034 ft | 283 kts | 213° |
| 2026-05-08 14:56 | 24.73389 | 39.68693 | 9280 ft | 285 kts | 238° |
| 2026-05-08 14:56 | 24.72728 | 39.66657 | 8925 ft | 284 kts | 262° |
| 2026-05-08 14:56 | 24.72884 | 39.64542 | 8686 ft | 279 kts | 287° |
| 2026-05-08 14:57 | 24.73852 | 39.62721 | 8557 ft | 277 kts | 313° |
| 2026-05-08 14:57 | 24.75432 | 39.61549 | 8432 ft | 280 kts | 340° |
| 2026-05-08 14:57 | 24.77342 | 39.61223 | 8315 ft | 280 kts | 0° |
| 2026-05-08 14:57 | 24.79289 | 39.61298 | 8193 ft | 280 kts | 3° |
| 2026-05-08 14:58 | 24.81243 | 39.61415 | 8067 ft | 280 kts | 3° |
| 2026-05-08 14:58 | 24.83167 | 39.61516 | 7921 ft | 276 kts | 2° |
| 2026-05-08 14:58 | 24.85059 | 39.61598 | 7690 ft | 269 kts | 2° |
| 2026-05-08 14:58 | 24.86887 | 39.61704 | 7452 ft | 264 kts | 4° |
| 2026-05-08 14:59 | 24.88700 | 39.61839 | 7200 ft | 259 kts | 4° |
| 2026-05-08 14:59 | 24.92220 | 39.62109 | 6643 ft | 252 kts | 4° |
| 2026-05-08 14:59 | 24.93922 | 39.62415 | 6412 ft | 248 kts | 25° |
| 2026-05-08 15:00 | 24.95241 | 39.63622 | 6408 ft | 249 kts | 61° |
| 2026-05-08 15:00 | 24.95720 | 39.65412 | 6415 ft | 245 kts | 93° |
| 2026-05-08 15:00 | 24.95607 | 39.67275 | 6420 ft | 244 kts | 98° |
| 2026-05-08 15:00 | 24.95439 | 39.69133 | 6416 ft | 244 kts | 98° |
| 2026-05-08 15:01 | 24.95218 | 39.70993 | 6407 ft | 242 kts | 110° |
| 2026-05-08 15:01 | 24.94333 | 39.72501 | 6402 ft | 236 kts | 145° |
| 2026-05-08 15:01 | 24.92854 | 39.73191 | 6409 ft | 232 kts | 177° |
| 2026-05-08 15:01 | 24.91260 | 39.73078 | 6420 ft | 232 kts | 187° |
| 2026-05-08 15:02 | 24.89669 | 39.72915 | 6416 ft | 232 kts | 185° |
| 2026-05-08 15:02 | 24.88061 | 39.72790 | 6414 ft | 232 kts | 185° |
| 2026-05-08 15:02 | 24.86446 | 39.72671 | 6413 ft | 232 kts | 185° |
| 2026-05-08 15:02 | 24.84848 | 39.72551 | 6407 ft | 232 kts | 185° |
| 2026-05-08 15:03 | 24.83226 | 39.72424 | 6228 ft | 231 kts | 185° |
| 2026-05-08 15:03 | 24.81647 | 39.72297 | 6066 ft | 230 kts | 185° |
| 2026-05-08 15:03 | 24.80043 | 39.72168 | 5905 ft | 230 kts | 185° |
| 2026-05-08 15:03 | 24.78464 | 39.72041 | 5749 ft | 229 kts | 185° |
| 2026-05-08 15:04 | 24.76888 | 39.71914 | 5591 ft | 225 kts | 185° |
| 2026-05-08 15:04 | 24.75360 | 39.71792 | 5435 ft | 216 kts | 185° |
| 2026-05-08 15:04 | 24.73892 | 39.71672 | 5294 ft | 212 kts | 186° |
| 2026-05-08 15:04 | 24.72430 | 39.71553 | 5197 ft | 206 kts | 185° |
| 2026-05-08 15:05 | 24.71057 | 39.71449 | 5062 ft | 191 kts | 185° |
| 2026-05-08 15:05 | 24.69769 | 39.71357 | 4755 ft | 179 kts | 185° |
| 2026-05-08 15:05 | 24.68598 | 39.71275 | 4547 ft | 163 kts | 186° |
| 2026-05-08 15:05 | 24.67516 | 39.71198 | 4315 ft | 151 kts | 186° |
| 2026-05-08 15:06 | 24.66466 | 39.71122 | 4139 ft | 150 kts | 186° |
| 2026-05-08 15:06 | 24.65424 | 39.71045 | 3944 ft | 150 kts | 186° |
| 2026-05-08 15:06 | 24.64388 | 39.70970 | 3746 ft | 150 kts | 186° |
| 2026-05-08 15:06 | 24.63340 | 39.70895 | 3554 ft | 154 kts | 191° |
| 2026-05-08 15:07 | 24.62254 | 39.70815 | 3359 ft | 153 kts | 188° |
| 2026-05-08 15:07 | 24.61241 | 39.70746 | 3154 ft | 144 kts | 189° |
| 2026-05-08 15:07 | 24.60232 | 39.70683 | 2978 ft | 144 kts | 187° |
| 2026-05-08 15:07 | 24.59234 | 39.70624 | 2784 ft | 144 kts | 191° |
| 2026-05-08 15:08 | 24.58233 | 39.70557 | 2591 ft | 145 kts | 188° |
| 2026-05-08 15:08 | 24.57567 | 39.70499 | 2451 ft | 144 kts | 191° |
| 2026-05-08 15:08 | 24.56237 | 39.70395 | 2183 ft | 142 kts | 193° |
| 2026-05-08 15:08 | 24.55442 | 39.70328 | 2159 ft | 46 kts | 184° |
| 2026-05-08 15:09 | 24.55395 | 39.70324 | 2159 ft | 0 kts | 185° |
| 2026-05-08 15:09 | 24.55306 | 39.70314 | 2159 ft | 19 kts | 185° |
| 2026-05-08 15:09 | 24.55173 | 39.70305 | 2159 ft | 18 kts | 183° |
| 2026-05-08 15:09 | 24.55119 | 39.70253 | 2159 ft | 9 kts | 266° |
| 2026-05-08 15:10 | 24.55075 | 39.70208 | 2159 ft | 9 kts | 194° |
| 2026-05-08 15:10 | 24.55012 | 39.70195 | 2159 ft | 10 kts | 187° |
| 2026-05-08 15:10 | 24.54926 | 39.70190 | 2159 ft | 14 kts | 183° |
| 2026-05-08 15:10 | 24.54818 | 39.70180 | 2159 ft | 18 kts | 186° |
| 2026-05-08 15:11 | 24.54721 | 39.70094 | 2159 ft | 12 kts | 238° |
| 2026-05-08 15:11 | 24.54667 | 39.70086 | 2159 ft | 10 kts | 160° |
| 2026-05-08 15:11 | 24.54588 | 39.70114 | 2159 ft | 12 kts | 194° |
| 2026-05-08 15:11 | 24.54550 | 39.70055 | 2159 ft | 4 kts | 243° |
| 2026-05-08 15:12 | 24.54539 | 39.70034 | 2159 ft | 0 kts | 242° |